Time;durP1;ratioP1;P1;durP2;ratioP2;P2;SDS_P1;SDS_P2;PMS_P1;PMS_P2;Temp;Humidity;BMP_temperature;BMP_pressure;BME280_temperature;BME280_humidity;BME280_pressure;Samples;Min_cycle;Max_cycle;Signal;HPM_P1;HPM_P2
2022/06/11 00:01:54;;;;;;;;;;;;;;;13.88;92.35;99282.59;1819982;79;20122;-71
2022/06/11 00:04:24;;;;;;;;;;;;;;;13.84;92.41;99271.47;1819978;78;21132;-72
2022/06/11 00:06:52;;;;;;;;;;;;;;;13.81;92.75;99272.16;1819886;79;20082;-72
2022/06/11 00:09:20;;;;;;;;;;;;;;;13.78;92.56;99271.47;1819932;79;20086;-72
2022/06/11 00:11:48;;;;;;;;;;;;;;;13.70;92.33;99267.43;1819862;79;20078;-72
2022/06/11 00:14:15;;;;;;;;;;;;;;;13.62;92.95;99273.28;1820147;78;20078;-71
2022/06/11 00:16:42;;;;;;;;;;;;;;;13.57;92.80;99269.36;1819877;79;21124;-71
2022/06/11 00:19:08;;;;;;;;;;;;;;;13.54;92.83;99263.16;1819725;79;20082;-71
2022/06/11 00:21:37;;;;;;;;;;;;;;;13.53;92.94;99259.59;1819897;79;20401;-71
2022/06/11 00:24:04;;;;;;;;;;;;;;;13.51;93.13;99265.22;1819995;78;20425;-70
2022/06/11 00:26:32;;;;;;;;;;;;;;;13.48;93.36;99259.81;1819886;78;20133;-71
2022/06/11 00:28:58;;;;;;;;;;;;;;;13.45;93.19;99259.11;1819922;79;21209;-69
2022/06/11 00:31:26;;;;;;;;;;;;;;;13.42;93.35;99265.31;1819700;78;20078;-69
2022/06/11 00:33:53;;;;;;;;;;;;;;;13.41;93.27;99268.41;1819789;79;20118;-69
2022/06/11 00:36:19;;;;;;;;;;;;;;;13.34;93.14;99269.53;1818380;78;20158;-70
2022/06/11 00:38:47;;;;;;;;;;;;;;;13.30;93.40;99275.50;1819938;78;20121;-69
2022/06/11 00:41:15;;;;;;;;;;;;;;;13.28;93.73;99277.82;1818475;78;21177;-69
2022/06/11 00:43:42;;;;;;;;;;;;;;;13.26;93.58;99275.97;1813423;79;20156;-69
2022/06/11 00:46:39;;;;;;;;;;;;;;;13.23;93.56;99278.03;1809322;79;20147;-69
2022/06/11 00:49:13;;;;;;;;;;;;;;;13.19;93.63;99278.71;1809220;79;20422;-69
2022/06/11 00:51:41;;;;;;;;;;;;;;;13.18;93.93;99287.31;1809238;79;20111;-69
2022/06/11 00:54:10;;;;;;;;;;;;;;;13.12;94.33;99283.13;1809289;79;21247;-69
2022/06/11 00:56:40;;;;;;;;;;;;;;;13.12;95.25;99284.50;1810338;79;20431;-69
2022/06/11 00:59:10;;;;;;;;;;;;;;;13.12;95.13;99285.31;1819578;78;20106;-69
2022/06/11 01:01:36;;;;;;;;;;;;;;;13.09;95.34;99292.08;1813963;78;20413;-71
2022/06/11 01:04:04;;;;;;;;;;;;;;;13.07;95.94;99286.09;1806168;79;20135;-72
2022/06/11 01:06:51;;;;;;;;;;;;;;;13.05;96.16;99287.81;1809477;79;21249;-71
2022/06/11 01:09:21;;;;;;;;;;;;;;;13.04;95.81;99296.41;1819755;78;20114;-70
2022/06/11 01:12:14;;;;;;;;;;;;;;;12.99;96.11;99293.30;1819764;78;20461;-71
2022/06/11 01:14:57;;;;;;;;;;;;;;;12.97;96.30;99298.33;1819764;79;37717;-71
2022/06/11 01:17:27;;;;;;;;;;;;;;;12.92;96.60;99299.11;1818963;79;20090;-72
2022/06/11 01:20:05;;;;;;;;;;;;;;;12.89;96.84;99291.75;1816988;78;21093;-72
2022/06/11 01:23:09;;;;;;;;;;;;;;;12.90;97.32;99300.25;1816274;79;20210;-72
2022/06/11 01:26:11;;;;;;;;;;;;;;;12.90;97.56;99302.20;1816700;79;20098;-72
2022/06/11 01:29:09;;;;;;;;;;;;;;;12.91;97.49;99302.44;1816638;78;20090;-71
2022/06/11 01:31:46;;;;;;;;;;;;;;;12.92;97.37;99304.62;1816648;79;20090;-70
2022/06/11 01:34:51;;;;;;;;;;;;;;;12.88;97.38;99295.66;1816052;79;21059;-70
2022/06/11 01:37:24;;;;;;;;;;;;;;;12.85;97.39;99296.32;1815250;79;20094;-70
2022/06/11 01:40:01;;;;;;;;;;;;;;;12.84;97.57;99301.59;1816870;79;20504;-69
2022/06/11 01:42:34;;;;;;;;;;;;;;;12.81;97.77;99299.52;1817032;78;20109;-69
2022/06/11 01:45:13;;;;;;;;;;;;;;;12.80;97.80;99302.61;1809129;79;20435;-69
2022/06/11 01:47:41;;;;;;;;;;;;;;;12.77;97.90;99306.84;1800761;79;21160;-70
2022/06/11 01:50:09;;;;;;;;;;;;;;;12.77;97.97;99302.70;1768576;79;20112;-70
2022/06/11 01:52:56;;;;;;;;;;;;;;;12.75;97.98;99304.19;1800737;79;20473;-70
2022/06/11 01:55:41;;;;;;;;;;;;;;;12.73;98.01;99301.77;1800669;79;20494;-69
2022/06/11 01:58:45;;;;;;;;;;;;;;;12.71;98.38;99307.41;1801015;79;20107;-70
2022/06/11 02:01:37;;;;;;;;;;;;;;;12.71;98.58;99314.29;1800841;79;21219;-70
2022/06/11 02:04:13;;;;;;;;;;;;;;;12.68;98.62;99313.02;1800614;79;20418;-71
2022/06/11 02:06:49;;;;;;;;;;;;;;;12.67;98.86;99318.86;1799424;79;20079;-71
2022/06/11 02:09:41;;;;;;;;;;;;;;;12.66;99.18;99319.42;1801847;79;20175;-71
2022/06/11 02:12:20;;;;;;;;;;;;;;;12.66;99.24;99319.42;1772026;79;20502;-72
2022/06/11 02:14:53;;;;;;;;;;;;;;;12.69;99.97;99315.20;1808107;79;21096;-72
2022/06/11 02:17:22;;;;;;;;;;;;;;;12.67;99.31;99312.77;1815632;79;20620;-71
2022/06/11 02:20:01;;;;;;;;;;;;;;;12.65;99.44;99318.38;1816706;78;20078;-71
2022/06/11 02:22:46;;;;;;;;;;;;;;;12.63;99.55;99322.04;1817007;78;20429;-71
2022/06/11 02:25:16;;;;;;;;;;;;;;;12.64;99.65;99327.78;1816757;79;20086;-71
2022/06/11 02:27:43;;;;;;;;;;;;;;;12.62;99.98;99322.61;1816893;78;21158;-71
2022/06/11 02:30:11;;;;;;;;;;;;;;;12.66;100.00;99324.13;1811609;79;20387;-71
2022/06/11 02:32:40;;;;;;;;;;;;;;;12.69;100.00;99329.77;1801077;79;20092;-71
2022/06/11 02:35:10;;;;;;;;;;;;;;;12.70;100.00;99331.95;1800928;79;20091;-70
2022/06/11 02:37:43;;;;;;;;;;;;;;;12.75;100.00;99334.48;1801227;79;20091;-71
2022/06/11 02:40:19;;;;;;;;;;;;;;;12.99;100.00;99336.58;1800320;79;21100;-71
2022/06/11 02:42:46;;;;;;;;;;;;;;;13.14;100.00;99327.12;1800067;79;20079;-72
2022/06/11 02:45:13;;;;;;;;;;;;;;;13.21;100.00;99326.03;1800925;79;20159;-71
2022/06/11 02:47:42;;;;;;;;;;;;;;;13.24;100.00;99333.39;1800932;79;20079;-71
2022/06/11 02:50:10;;;;;;;;;;;;;;;13.26;100.00;99328.34;1800966;79;20116;-70
2022/06/11 02:52:39;;;;;;;;;;;;;;;13.32;100.00;99327.77;1800770;79;21136;-70
2022/06/11 02:55:05;;;;;;;;;;;;;;;13.40;100.00;99328.27;1800929;79;20088;-70
2022/06/11 02:57:33;;;;;;;;;;;;;;;13.47;100.00;99330.47;1800886;79;20119;-70
2022/06/11 02:59:59;;;;;;;;;;;;;;;13.53;100.00;99336.00;1800910;79;20416;-70
2022/06/11 03:02:26;;;;;;;;;;;;;;;13.61;100.00;99326.83;1800726;79;20080;-71
2022/06/11 03:04:53;;;;;;;;;;;;;;;13.70;100.00;99327.55;1800789;79;22066;-70
2022/06/11 03:07:20;;;;;;;;;;;;;;;13.83;100.00;99325.62;1800719;79;20071;-70
2022/06/11 03:09:47;;;;;;;;;;;;;;;13.94;100.00;99328.70;1800914;79;20092;-70
2022/06/11 03:12:14;;;;;;;;;;;;;;;14.03;100.00;99323.89;1801092;79;20415;-70
2022/06/11 03:14:41;;;;;;;;;;;;;;;14.11;100.00;99325.73;1800842;79;20115;-70
2022/06/11 03:17:08;;;;;;;;;;;;;;;14.24;100.00;99325.97;1800877;79;21198;-71
2022/06/11 03:19:35;;;;;;;;;;;;;;;14.35;100.00;99325.74;1800553;79;20092;-71
2022/06/11 03:22:02;;;;;;;;;;;;;;;14.49;100.00;99323.43;1800906;79;20067;-72
2022/06/11 03:24:30;;;;;;;;;;;;;;;14.63;100.00;99326.41;1800912;79;20107;-70
2022/06/11 03:26:56;;;;;;;;;;;;;;;14.78;100.00;99327.08;1800998;79;20079;-71
2022/06/11 03:29:23;;;;;;;;;;;;;;;14.93;100.00;99332.45;1801070;79;21152;-71
2022/06/11 03:31:51;;;;;;;;;;;;;;;15.05;100.00;99340.11;1800755;79;20068;-71
2022/06/11 03:34:17;;;;;;;;;;;;;;;15.20;100.00;99340.75;1800756;79;20108;-72
2022/06/11 03:36:45;;;;;;;;;;;;;;;15.34;100.00;99338.16;1796941;79;20119;-72
2022/06/11 03:39:13;;;;;;;;;;;;;;;15.43;100.00;99338.23;1777776;79;20481;-72
2022/06/11 03:41:40;;;;;;;;;;;;;;;15.53;99.85;99336.34;1789191;79;20526;-71
2022/06/11 03:44:07;;;;;;;;;;;;;;;15.64;99.77;99334.45;1800271;79;20091;-71
2022/06/11 03:46:34;;;;;;;;;;;;;;;15.72;99.89;99340.40;1800261;79;20439;-71
2022/06/11 03:49:00;;;;;;;;;;;;;;;15.77;99.89;99340.94;1800303;79;20095;-71
2022/06/11 03:51:27;;;;;;;;;;;;;;;15.83;100.00;99339.52;1800334;79;20087;-71
2022/06/11 03:53:54;;;;;;;;;;;;;;;15.92;100.00;99344.09;1800323;79;21135;-71
2022/06/11 03:56:21;;;;;;;;;;;;;;;15.99;100.00;99335.39;1800120;79;20096;-70
2022/06/11 03:58:48;;;;;;;;;;;;;;;16.13;100.00;99337.72;1800292;79;20164;-70
2022/06/11 04:01:15;;;;;;;;;;;;;;;16.26;99.55;99338.39;1800254;79;20115;-70
2022/06/11 04:03:47;;;;;;;;;;;;;;;16.42;98.52;99341.95;1800220;79;20115;-70
2022/06/11 04:06:21;;;;;;;;;;;;;;;16.61;97.40;99343.98;1800335;79;21206;-70
2022/06/11 04:08:49;;;;;;;;;;;;;;;16.82;95.73;99347.25;1800508;79;20349;-70
2022/06/11 04:11:17;;;;;;;;;;;;;;;17.02;94.17;99339.18;1800188;79;20148;-70
2022/06/11 04:13:44;;;;;;;;;;;;;;;17.23;93.02;99339.41;1800255;79;20072;-72
2022/06/11 04:16:38;;;;;;;;;;;;;;;17.43;91.25;99340.41;1800272;79;20096;-71
2022/06/11 04:19:06;;;;;;;;;;;;;;;17.62;90.85;99339.58;1800182;79;21268;-72
2022/06/11 04:21:33;;;;;;;;;;;;;;;17.90;90.59;99342.70;1800253;79;20147;-70
2022/06/11 04:23:59;;;;;;;;;;;;;;;18.12;90.77;99341.88;1800277;79;20079;-70
2022/06/11 04:26:30;;;;;;;;;;;;;;;18.34;88.62;99338.28;1800142;79;20144;-70
2022/06/11 04:28:57;;;;;;;;;;;;;;;18.56;86.58;99339.98;1800510;79;20116;-74
2022/06/11 04:31:24;;;;;;;;;;;;;;;18.78;84.48;99337.18;1800178;79;21125;-71
2022/06/11 04:33:50;;;;;;;;;;;;;;;18.99;82.83;99339.45;1800202;79;20115;-71
2022/06/11 04:36:20;;;;;;;;;;;;;;;19.20;81.46;99339.50;1800316;79;20100;-72
2022/06/11 04:38:46;;;;;;;;;;;;;;;19.42;79.33;99345.54;1800229;79;20432;-70
2022/06/11 04:41:13;;;;;;;;;;;;;;;19.63;77.57;99346.41;1800504;79;20418;-71
2022/06/11 04:43:41;;;;;;;;;;;;;;;19.86;75.56;99353.19;1800371;79;21875;-69
2022/06/11 04:46:08;;;;;;;;;;;;;;;20.07;74.50;99349.23;1788060;79;20086;-73
2022/06/11 04:48:35;;;;;;;;;;;;;;;20.22;72.81;99348.77;1782782;79;20160;-71
2022/06/11 04:51:02;;;;;;;;;;;;;;;20.32;71.64;99350.81;1779478;79;20082;-71
2022/06/11 04:53:30;;;;;;;;;;;;;;;20.43;70.30;99351.73;1782076;79;20144;-72
2022/06/11 04:55:57;;;;;;;;;;;;;;;20.53;69.28;99355.80;1768687;81;21079;-71
2022/06/11 04:58:24;;;;;;;;;;;;;;;20.62;68.58;99359.05;1768658;81;20433;-71
2022/06/11 05:00:51;;;;;;;;;;;;;;;20.74;67.80;99350.37;1768055;81;20213;-71
2022/06/11 05:03:17;;;;;;;;;;;;;;;20.91;67.66;99355.83;1768324;81;20094;-77
2022/06/11 05:05:44;;;;;;;;;;;;;;;21.12;67.79;99352.36;1767878;81;20114;-69
2022/06/11 05:08:12;;;;;;;;;;;;;;;21.33;66.19;99351.90;1768539;81;22049;-70
2022/06/11 05:10:39;;;;;;;;;;;;;;;21.57;66.71;99343.98;1768658;81;20118;-70
2022/06/11 05:13:06;;;;;;;;;;;;;;;21.80;65.89;99352.03;1768672;81;20198;-70
2022/06/11 05:15:34;;;;;;;;;;;;;;;22.00;64.45;99356.03;1768592;81;20146;-75
2022/06/11 05:18:01;;;;;;;;;;;;;;;22.19;63.71;99355.69;1734628;81;20113;-85
2022/06/11 05:20:28;;;;;;;;;;;;;;;22.38;63.06;99355.91;1767813;80;21135;-84
2022/06/11 05:22:55;;;;;;;;;;;;;;;22.56;64.37;99360.06;1768620;81;20435;-69
2022/06/11 05:25:22;;;;;;;;;;;;;;;22.72;62.15;99350.06;1768930;81;20094;-74
2022/06/11 05:27:49;;;;;;;;;;;;;;;22.89;60.91;99348.46;1768561;81;20114;-78
2022/06/11 05:30:22;;;;;;;;;;;;;;;23.09;61.35;99351.61;1768618;81;20106;-80
2022/06/11 05:32:48;;;;;;;;;;;;;;;23.25;58.68;99351.94;1769829;79;21270;-73
2022/06/11 05:35:20;;;;;;;;;;;;;;;23.39;57.24;99358.08;1775487;79;20134;-79
2022/06/11 05:37:48;;;;;;;;;;;;;;;23.52;57.34;99358.44;1736430;81;20121;-76
2022/06/11 05:40:17;;;;;;;;;;;;;;;23.64;57.21;99359.41;1768309;81;20421;-74
2022/06/11 05:42:47;;;;;;;;;;;;;;;23.78;57.15;99350.09;1779894;79;20084;-78
2022/06/11 05:45:18;;;;;;;;;;;;;;;23.93;55.23;99356.61;1800119;79;21145;-73
2022/06/11 05:47:46;;;;;;;;;;;;;;;24.09;53.21;99365.92;1800038;79;20134;-76
2022/06/11 05:50:14;;;;;;;;;;;;;;;24.23;50.86;99360.82;1800568;79;20131;-79
2022/06/11 05:52:45;;;;;;;;;;;;;;;24.38;52.35;99360.11;1800261;79;20095;-71
2022/06/11 05:55:09;;;;;;;;;;;;;;;24.46;50.11;99363.05;1800071;79;20080;-71
2022/06/11 05:57:37;;;;;;;;;;;;;;;24.49;49.65;99365.02;1800315;79;21129;-72
2022/06/11 06:00:06;;;;;;;;;;;;;;;24.52;48.86;99362.19;1767009;79;20132;-79
2022/06/11 06:02:35;;;;;;;;;;;;;;;24.61;48.91;99368.73;1799243;79;20138;-82
2022/06/11 06:05:02;;;;;;;;;;;;;;;24.73;49.36;99366.02;1800182;79;20092;-87
2022/06/11 06:07:28;;;;;;;;;;;;;;;24.90;45.66;99365.81;1800349;79;20107;-81
2022/06/11 06:09:55;;;;;;;;;;;;;;;25.08;44.42;99367.67;1798931;79;21119;-83
2022/06/11 06:12:22;;;;;;;;;;;;;;;25.22;44.77;99368.92;1800141;79;20123;-86
2022/06/11 06:14:49;;;;;;;;;;;;;;;25.33;44.13;99368.99;1767057;79;20116;-90
2022/06/11 06:17:16;;;;;;;;;;;;;;;25.46;43.07;99368.41;1800204;79;20112;-77
2022/06/11 06:19:43;;;;;;;;;;;;;;;25.57;43.15;99360.64;1798217;79;20096;-75
2022/06/11 06:22:10;;;;;;;;;;;;;;;25.63;43.55;99356.95;1787302;80;21144;-74
2022/06/11 06:24:37;;;;;;;;;;;;;;;25.73;40.92;99363.67;1786207;80;20072;-75
2022/06/11 06:27:04;;;;;;;;;;;;;;;25.81;40.60;99359.55;1787620;80;20463;-78
2022/06/11 06:29:31;;;;;;;;;;;;;;;25.89;38.24;99361.04;1787810;80;20096;-75
2022/06/11 06:31:58;;;;;;;;;;;;;;;25.99;39.13;99363.52;1787613;80;20451;-86
2022/06/11 06:34:26;;;;;;;;;;;;;;;26.08;39.01;99355.31;1787667;80;21718;-81
2022/06/11 06:36:53;;;;;;;;;;;;;;;26.18;36.56;99356.38;1787572;80;20490;-78
2022/06/11 06:39:19;;;;;;;;;;;;;;;26.29;37.88;99361.22;1787996;80;20090;-75
2022/06/11 06:41:46;;;;;;;;;;;;;;;26.39;36.59;99360.28;1787438;80;20411;-74
2022/06/11 06:44:15;;;;;;;;;;;;;;;26.48;36.84;99358.34;1787743;80;20096;-75
2022/06/11 06:46:41;;;;;;;;;;;;;;;26.55;34.67;99361.83;1787661;80;21152;-75
2022/06/11 06:49:08;;;;;;;;;;;;;;;26.64;36.32;99361.25;1787899;80;20102;-74
2022/06/11 06:51:35;;;;;;;;;;;;;;;26.74;34.88;99357.45;1787645;80;20096;-75
2022/06/11 06:54:03;;;;;;;;;;;;;;;26.83;35.42;99361.91;1787600;80;20451;-75
2022/06/11 06:56:33;;;;;;;;;;;;;;;26.95;36.65;99366.92;1787940;80;20179;-78
2022/06/11 06:58:58;;;;;;;;;;;;;;;27.06;35.95;99366.75;1787520;80;21550;-78
2022/06/11 07:01:26;;;;;;;;;;;;;;;27.12;36.06;99361.41;1787349;79;20419;-74
2022/06/11 07:03:53;;;;;;;;;;;;;;;27.17;37.18;99364.50;1787754;80;20494;-75
2022/06/11 07:06:20;;;;;;;;;;;;;;;27.20;36.53;99363.63;1787925;80;20116;-75
2022/06/11 07:08:49;;;;;;;;;;;;;;;27.26;36.73;99365.34;1787574;80;20502;-72
2022/06/11 07:11:18;;;;;;;;;;;;;;;27.34;36.30;99369.60;1787698;80;20120;-80
2022/06/11 07:13:44;;;;;;;;;;;;;;;27.36;36.07;99368.55;1787544;80;20085;-86
2022/06/11 07:16:11;;;;;;;;;;;;;;;27.41;38.59;99363.03;1787667;80;20116;-73
2022/06/11 07:18:41;;;;;;;;;;;;;;;27.53;37.74;99362.38;1787611;80;20436;-72
2022/06/11 07:21:11;;;;;;;;;;;;;;;27.63;35.38;99361.38;1779144;80;20098;-70
2022/06/11 07:23:42;;;;;;;;;;;;;;;27.72;35.64;99357.36;1821212;79;21344;-73
2022/06/11 07:26:15;;;;;;;;;;;;;;;27.83;35.43;99361.33;1820988;79;20118;-71
2022/06/11 07:28:48;;;;;;;;;;;;;;;27.90;37.61;99362.58;1821088;79;20135;-72
2022/06/11 07:31:15;;;;;;;;;;;;;;;27.97;33.48;99361.00;1821086;79;20114;-72
2022/06/11 07:33:42;;;;;;;;;;;;;;;28.00;32.92;99364.36;1821707;78;20090;-76
2022/06/11 07:36:10;;;;;;;;;;;;;;;28.04;34.23;99363.66;1821063;79;21226;-73
2022/06/11 07:38:37;;;;;;;;;;;;;;;28.13;32.38;99359.63;1819985;79;20082;-74
2022/06/11 07:41:05;;;;;;;;;;;;;;;28.24;32.62;99365.05;1820980;78;20109;-72
2022/06/11 07:43:32;;;;;;;;;;;;;;;28.31;32.58;99358.44;1821054;79;20148;-73
2022/06/11 07:45:58;;;;;;;;;;;;;;;28.41;33.52;99355.33;1821104;79;20102;-74
2022/06/11 07:48:25;;;;;;;;;;;;;;;28.55;32.11;99354.17;1787268;79;21211;-71
2022/06/11 07:50:52;;;;;;;;;;;;;;;28.64;31.54;99357.17;1787803;80;20404;-71
2022/06/11 07:53:20;;;;;;;;;;;;;;;28.73;31.65;99355.92;1787717;80;20093;-71
2022/06/11 07:55:47;;;;;;;;;;;;;;;28.75;29.82;99357.69;1787701;80;20108;-71
2022/06/11 07:58:15;;;;;;;;;;;;;;;28.76;31.06;99359.27;1787673;80;20100;-71
2022/06/11 08:00:44;;;;;;;;;;;;;;;28.78;29.52;99356.80;1787603;80;21209;-71
2022/06/11 08:03:12;;;;;;;;;;;;;;;28.82;30.16;99353.30;1787547;80;20116;-71
2022/06/11 08:05:39;;;;;;;;;;;;;;;28.86;31.37;99362.47;1787710;80;20116;-71
2022/06/11 08:08:07;;;;;;;;;;;;;;;28.97;28.75;99357.92;1787581;80;20140;-72
2022/06/11 08:10:36;;;;;;;;;;;;;;;29.02;29.72;99364.44;1787605;80;20428;-83
2022/06/11 08:13:05;;;;;;;;;;;;;;;29.11;30.39;99354.70;1787563;80;21874;-77
2022/06/11 08:15:31;;;;;;;;;;;;;;;29.29;29.83;99358.45;1787498;80;20602;-79
2022/06/11 08:18:00;;;;;;;;;;;;;;;29.47;28.89;99362.17;1787547;80;20161;-82
2022/06/11 08:20:27;;;;;;;;;;;;;;;29.63;28.62;99355.66;1794471;78;20077;-76
2022/06/11 08:22:54;;;;;;;;;;;;;;;29.83;28.60;99359.88;1825867;78;20086;-75
2022/06/11 08:25:21;;;;;;;;;;;;;;;30.07;28.36;99357.52;1825624;78;21110;-80
2022/06/11 08:27:47;;;;;;;;;;;;;;;30.27;27.25;99354.46;1822196;78;20105;-77
2022/06/11 08:30:16;;;;;;;;;;;;;;;30.45;25.95;99355.30;1807248;78;20467;-75
2022/06/11 08:32:42;;;;;;;;;;;;;;;30.53;26.48;99353.81;1793478;78;20509;-74
2022/06/11 08:35:10;;;;;;;;;;;;;;;30.66;27.50;99343.25;1793203;80;20116;-71
2022/06/11 08:37:36;;;;;;;;;;;;;;;30.89;27.53;99349.13;1793440;80;21125;-72
2022/06/11 08:40:09;;;;;;;;;;;;;;;31.10;25.71;99352.63;1793204;80;20155;-71
2022/06/11 08:42:41;;;;;;;;;;;;;;;31.30;25.30;99350.89;1793159;80;20068;-70
2022/06/11 08:45:21;;;;;;;;;;;;;;;31.41;25.21;99351.29;1793293;80;20439;-71
2022/06/11 08:47:50;;;;;;;;;;;;;;;31.53;26.86;99350.42;1793318;80;20092;-71
2022/06/11 08:50:20;;;;;;;;;;;;;;;31.76;25.12;99349.17;1793449;80;21112;-71
2022/06/11 08:52:48;;;;;;;;;;;;;;;31.92;25.42;99339.61;1793102;80;20068;-71
2022/06/11 08:55:14;;;;;;;;;;;;;;;32.05;24.50;99340.30;1793202;80;20560;-73
2022/06/11 08:58:00;;;;;;;;;;;;;;;32.03;24.28;99345.66;1791629;80;20080;-75
2022/06/11 09:00:50;;;;;;;;;;;;;;;31.95;24.92;99335.84;1793001;80;20111;-75
2022/06/11 09:03:26;;;;;;;;;;;;;;;32.01;23.98;99327.51;1793377;80;21093;-74
2022/06/11 09:05:58;;;;;;;;;;;;;;;32.15;24.74;99335.45;1823051;78;20417;-72
2022/06/11 09:08:40;;;;;;;;;;;;;;;32.29;25.19;99336.32;1825511;78;20090;-72
2022/06/11 09:11:22;;;;;;;;;;;;;;;32.34;28.18;99337.13;1824712;78;20121;-76
2022/06/11 09:14:09;;;;;;;;;;;;;;;32.50;27.77;99336.03;1825517;78;20114;-72
2022/06/11 09:17:00;;;;;;;;;;;;;;;32.68;25.18;99333.22;1793946;78;23133;-71
2022/06/11 09:19:30;;;;;;;;;;;;;;;32.89;25.36;99327.91;1825427;78;20275;-74
2022/06/11 09:22:10;;;;;;;;;;;;;;;33.15;24.76;99329.94;1830698;78;20193;-74
2022/06/11 09:24:44;;;;;;;;;;;;;;;33.29;24.67;99325.69;1833727;78;20401;-74
2022/06/11 09:27:30;;;;;;;;;;;;;;;33.36;23.37;99326.78;1833748;78;20173;-73
2022/06/11 09:30:08;;;;;;;;;;;;;;;33.49;24.57;99328.66;1811272;78;21177;-73
2022/06/11 09:32:58;;;;;;;;;;;;;;;33.60;22.18;99331.77;1834263;78;20479;-72
2022/06/11 09:35:35;;;;;;;;;;;;;;;33.62;23.23;99327.81;1835144;78;20117;-71
2022/06/11 09:38:11;;;;;;;;;;;;;;;33.56;24.18;99325.45;1801295;79;20095;-72
2022/06/11 09:40:44;;;;;;;;;;;;;;;33.51;23.44;99325.46;1834234;78;20078;-73
2022/06/11 09:43:32;;;;;;;;;;;;;;;33.45;21.76;99327.41;1834953;78;20744;-73
2022/06/11 09:46:12;;;;;;;;;;;;;;;33.45;22.73;99324.55;1834756;78;20086;-73
2022/06/11 09:49:19;;;;;;;;;;;;;;;33.55;23.26;99317.55;1835032;78;20065;-73
2022/06/11 09:51:52;;;;;;;;;;;;;;;33.62;23.10;99320.69;1834968;78;20129;-72
2022/06/11 09:54:41;;;;;;;;;;;;;;;33.76;22.89;99323.66;1834971;78;20085;-73
2022/06/11 09:57:23;;;;;;;;;;;;;;;33.79;22.60;99317.03;1834489;78;22027;-72
2022/06/11 09:59:53;;;;;;;;;;;;;;;33.81;22.46;99327.94;1834944;78;20077;-72
2022/06/11 10:02:49;;;;;;;;;;;;;;;33.83;21.19;99317.50;1834914;78;20401;-71
2022/06/11 10:05:26;;;;;;;;;;;;;;;33.93;23.94;99328.38;1832862;77;20089;-71
2022/06/11 10:07:57;;;;;;;;;;;;;;;34.12;22.76;99317.03;1822234;78;20424;-76
2022/06/11 10:10:30;;;;;;;;;;;;;;;34.12;21.15;99315.61;1766821;81;21135;-77
2022/06/11 10:13:00;;;;;;;;;;;;;;;34.08;20.67;99310.72;1780272;80;20092;-76
2022/06/11 10:15:31;;;;;;;;;;;;;;;34.02;21.61;99310.47;1766123;81;20433;-71
2022/06/11 10:18:17;;;;;;;;;;;;;;;34.09;21.63;99314.36;1779401;80;20128;-71
2022/06/11 10:20:56;;;;;;;;;;;;;;;34.23;21.26;99302.89;1766940;81;20078;-71
2022/06/11 10:23:35;;;;;;;;;;;;;;;34.41;22.07;99301.40;1797775;80;21759;-71
2022/06/11 10:26:14;;;;;;;;;;;;;;;34.59;21.43;99297.64;1796438;80;20079;-71
2022/06/11 10:28:46;;;;;;;;;;;;;;;34.62;20.37;99301.73;1811542;78;20065;-72
2022/06/11 10:31:30;;;;;;;;;;;;;;;34.65;21.61;99295.70;1799172;78;20089;-72
2022/06/11 10:34:02;;;;;;;;;;;;;;;34.73;22.82;99296.88;1825592;78;20077;-72
2022/06/11 10:36:41;;;;;;;;;;;;;;;34.83;21.35;99299.05;1825304;78;21549;-72
2022/06/11 10:39:20;;;;;;;;;;;;;;;34.89;22.74;99296.45;1825632;78;20109;-72
2022/06/11 10:42:03;;;;;;;;;;;;;;;34.90;23.40;99300.89;1825389;78;20109;-72
2022/06/11 10:44:35;;;;;;;;;;;;;;;34.64;22.04;99299.19;1825975;78;20137;-72
2022/06/11 10:47:09;;;;;;;;;;;;;;;34.23;23.38;99303.69;1825370;78;20094;-72
2022/06/11 10:49:37;;;;;;;;;;;;;;;34.07;24.05;99303.48;1824526;78;21859;-72
2022/06/11 10:52:07;;;;;;;;;;;;;;;34.15;22.64;99303.89;1825299;78;20078;-72
2022/06/11 10:54:34;;;;;;;;;;;;;;;34.30;22.71;99292.57;1825443;78;20150;-72
2022/06/11 10:57:05;;;;;;;;;;;;;;;34.54;21.92;99293.39;1825395;78;20117;-73
2022/06/11 10:59:35;;;;;;;;;;;;;;;34.70;21.41;99291.51;1825465;78;20113;-71
2022/06/11 11:02:10;;;;;;;;;;;;;;;34.87;22.76;99285.39;1825355;78;20551;-75
2022/06/11 11:04:39;;;;;;;;;;;;;;;34.97;22.23;99287.67;1825156;78;20425;-75
2022/06/11 11:07:12;;;;;;;;;;;;;;;34.91;21.13;99278.86;1819843;78;20083;-84
2022/06/11 11:09:39;;;;;;;;;;;;;;;34.83;19.64;99281.94;1801668;78;20115;-86
2022/06/11 11:12:29;;;;;;;;;;;;;;;34.65;21.99;99277.17;1798654;78;20080;-72
2022/06/11 11:15:11;;;;;;;;;;;;;;;34.67;22.12;99283.93;1808728;79;21130;-73
2022/06/11 11:17:39;;;;;;;;;;;;;;;34.73;21.98;99273.42;1835234;78;20421;-70
2022/06/11 11:22:55;;;;;;;;;;;;;;;34.86;21.48;99273.83;1815391;78;20433;-74
2022/06/11 11:25:25;;;;;;;;;;;;;;;34.71;21.03;99274.55;1831741;78;20089;-74
2022/06/11 11:27:52;;;;;;;;;;;;;;;34.46;22.42;99267.96;1830307;78;21137;-75
2022/06/11 11:30:22;;;;;;;;;;;;;;;34.41;21.58;99270.05;1831670;78;20480;-81
2022/06/11 11:32:50;;;;;;;;;;;;;;;34.47;20.56;99265.27;1831742;78;20453;-74
2022/06/11 11:35:26;;;;;;;;;;;;;;;34.49;22.38;99273.33;1802235;78;20090;-73
2022/06/11 11:38:01;;;;;;;;;;;;;;;34.61;21.21;99271.66;1831741;78;20432;-71
2022/06/11 11:40:31;;;;;;;;;;;;;;;34.77;21.35;99265.48;1831732;78;21782;-70
2022/06/11 11:43:03;;;;;;;;;;;;;;;35.05;21.24;99262.41;1831975;78;20117;-71
2022/06/11 11:45:42;;;;;;;;;;;;;;;35.30;21.06;99260.42;1832131;78;20113;-72
2022/06/11 11:48:21;;;;;;;;;;;;;;;35.25;20.98;99262.50;1831741;78;20089;-72
2022/06/11 11:50:51;;;;;;;;;;;;;;;34.95;21.37;99260.92;1820584;78;20106;-72
2022/06/11 11:53:29;;;;;;;;;;;;;;;34.48;21.00;99261.77;1801975;78;21206;-71
2022/06/11 11:55:58;;;;;;;;;;;;;;;34.24;21.29;99256.05;1831946;78;20077;-72
2022/06/11 11:58:32;;;;;;;;;;;;;;;34.22;22.21;99250.83;1831603;78;20101;-73
2022/06/11 12:01:06;;;;;;;;;;;;;;;34.39;21.36;99245.53;1832060;78;20074;-73
2022/06/11 12:03:47;;;;;;;;;;;;;;;34.64;20.75;99247.88;1847231;77;20090;-72
2022/06/11 12:06:15;;;;;;;;;;;;;;;34.76;19.05;99249.64;1832343;78;21844;-72
2022/06/11 12:08:47;;;;;;;;;;;;;;;34.61;19.28;99243.15;1831876;78;20443;-71
2022/06/11 12:11:29;;;;;;;;;;;;;;;34.38;20.67;99249.02;1847665;77;20089;-71
2022/06/11 12:14:02;;;;;;;;;;;;;;;34.19;20.75;99238.20;1820902;78;20114;-73
2022/06/11 12:16:32;;;;;;;;;;;;;;;34.07;20.37;99240.83;1830452;78;20078;-71
2022/06/11 12:19:02;;;;;;;;;;;;;;;34.21;21.99;99239.92;1822717;78;21099;-72
2022/06/11 12:21:31;;;;;;;;;;;;;;;34.59;20.57;99232.08;1822645;78;20078;-71
2022/06/11 12:24:06;;;;;;;;;;;;;;;34.94;21.28;99231.61;1822789;78;20090;-71
2022/06/11 12:26:39;;;;;;;;;;;;;;;35.25;21.57;99236.82;1822826;78;20147;-72
2022/06/11 12:29:15;;;;;;;;;;;;;;;35.41;20.23;99227.80;1793278;78;20094;-71
2022/06/11 12:31:42;;;;;;;;;;;;;;;35.56;20.40;99227.78;1822668;78;22126;-70
2022/06/11 12:34:17;;;;;;;;;;;;;;;35.65;19.73;99229.09;1822606;78;20074;-70
2022/06/11 12:37:05;;;;;;;;;;;;;;;35.72;20.42;99220.77;1822714;78;20082;-70
2022/06/11 12:39:46;;;;;;;;;;;;;;;35.79;18.36;99218.17;1821570;78;20090;-71
2022/06/11 12:42:20;;;;;;;;;;;;;;;35.85;17.66;99212.66;1798576;80;20089;-72
2022/06/11 12:44:57;;;;;;;;;;;;;;;35.81;17.24;99211.32;1831964;78;21877;-74
2022/06/11 12:47:48;;;;;;;;;;;;;;;35.86;18.78;99202.80;1823642;78;20136;-72
2022/06/11 12:50:38;;;;;;;;;;;;;;;35.97;18.40;99198.69;1831963;78;20133;-72
2022/06/11 12:53:17;;;;;;;;;;;;;;;36.25;19.49;99198.28;1832230;78;20077;-76
2022/06/11 12:55:53;;;;;;;;;;;;;;;36.41;18.02;99194.06;1832277;78;20457;-76
2022/06/11 12:58:40;;;;;;;;;;;;;;;36.42;19.09;99196.42;1831855;78;21531;-74
2022/06/11 13:01:18;;;;;;;;;;;;;;;36.54;19.23;99190.98;1831586;78;20093;-73
2022/06/11 13:03:53;;;;;;;;;;;;;;;36.43;19.03;99185.13;1826324;78;20113;-72
2022/06/11 13:06:26;;;;;;;;;;;;;;;36.10;19.56;99188.34;1813880;78;20135;-75
2022/06/11 13:08:57;;;;;;;;;;;;;;;35.92;20.55;99180.04;1799640;79;20385;-75
2022/06/11 13:11:35;;;;;;;;;;;;;;;36.09;20.86;99178.84;1807691;78;21999;-74
2022/06/11 13:14:18;;;;;;;;;;;;;;;36.22;20.21;99182.13;1823853;78;20102;-72